sensor_id;sensor_type;location;lat;lon;timestamp;P1;durP1;ratioP1;P2;durP2;ratioP2
17169;SDS011;8700;48.222;16.342;2023-05-16T14:01:14;37.67;;;34.77;;
17169;SDS011;8700;48.222;16.342;2023-05-16T14:04:35;24.50;;;22.37;;
17169;SDS011;8700;48.222;16.342;2023-05-16T14:07:57;21.30;;;19.50;;
17169;SDS011;8700;48.222;16.342;2023-05-16T14:11:21;22.08;;;20.25;;
17169;SDS011;8700;48.222;16.342;2023-05-16T14:14:48;22.20;;;20.25;;
17169;SDS011;8700;48.222;16.342;2023-05-16T14:18:11;21.10;;;19.50;;
17169;SDS011;8700;48.222;16.342;2023-05-16T14:21:38;20.80;;;19.17;;
17169;SDS011;8700;48.222;16.342;2023-05-16T14:24:59;19.13;;;17.35;;
17169;SDS011;8700;48.222;16.342;2023-05-16T14:28:21;20.83;;;19.15;;
17169;SDS011;8700;48.222;16.342;2023-05-16T14:31:43;20.30;;;18.63;;
17169;SDS011;8700;48.222;16.342;2023-05-16T14:35:07;19.45;;;17.77;;
17169;SDS011;8700;48.222;16.342;2023-05-16T14:38:31;19.35;;;17.75;;
17169;SDS011;8700;48.222;16.342;2023-05-16T14:41:52;19.73;;;18.25;;
17169;SDS011;8700;48.222;16.342;2023-05-16T14:45:13;20.13;;;18.63;;
17169;SDS011;8700;48.222;16.342;2023-05-16T14:48:35;20.48;;;18.88;;
17169;SDS011;8700;48.222;16.342;2023-05-16T14:52:01;20.38;;;18.83;;
17169;SDS011;8700;48.222;16.342;2023-05-16T14:55:22;20.75;;;19.05;;
17169;SDS011;8700;48.222;16.342;2023-05-16T14:58:44;20.27;;;18.58;;
17169;SDS011;8700;48.222;16.342;2023-05-16T15:02:05;21.23;;;19.52;;
17169;SDS011;8700;48.222;16.342;2023-05-16T15:05:27;19.67;;;18.17;;
17169;SDS011;8700;48.222;16.342;2023-05-16T15:08:50;19.67;;;18.27;;
17169;SDS011;8700;48.222;16.342;2023-05-16T15:12:11;21.23;;;19.63;;
17169;SDS011;8700;48.222;16.342;2023-05-16T15:15:34;20.70;;;19.02;;
17169;SDS011;8700;48.222;16.342;2023-05-16T15:18:57;20.92;;;19.40;;
17169;SDS011;8700;48.222;16.342;2023-05-16T15:22:18;19.60;;;17.95;;
17169;SDS011;8700;48.222;16.342;2023-05-16T15:25:41;19.80;;;18.30;;
17169;SDS011;8700;48.222;16.342;2023-05-16T15:29:02;19.52;;;17.70;;
17169;SDS011;8700;48.222;16.342;2023-05-16T15:32:26;18.60;;;17.13;;
17169;SDS011;8700;48.222;16.342;2023-05-16T15:35:51;19.20;;;17.38;;
17169;SDS011;8700;48.222;16.342;2023-05-16T15:39:23;19.13;;;17.52;;
17169;SDS011;8700;48.222;16.342;2023-05-16T15:42:46;21.40;;;19.52;;
17169;SDS011;8700;48.222;16.342;2023-05-16T15:46:07;21.75;;;19.90;;
17169;SDS011;8700;48.222;16.342;2023-05-16T15:49:29;21.83;;;20.02;;
17169;SDS011;8700;48.222;16.342;2023-05-16T15:52:52;19.67;;;17.88;;
17169;SDS011;8700;48.222;16.342;2023-05-16T15:56:16;21.33;;;19.50;;
17169;SDS011;8700;48.222;16.342;2023-05-16T15:59:39;21.83;;;20.08;;
17169;SDS011;8700;48.222;16.342;2023-05-16T16:03:00;19.77;;;18.05;;
17169;SDS011;8700;48.222;16.342;2023-05-16T16:06:21;22.55;;;20.85;;
17169;SDS011;8700;48.222;16.342;2023-05-16T16:09:43;20.50;;;18.90;;
17169;SDS011;8700;48.222;16.342;2023-05-16T16:13:04;20.50;;;18.88;;
17169;SDS011;8700;48.222;16.342;2023-05-16T16:16:27;20.33;;;18.65;;
17169;SDS011;8700;48.222;16.342;2023-05-16T16:19:48;20.90;;;19.30;;
17169;SDS011;8700;48.222;16.342;2023-05-16T16:23:10;21.83;;;20.02;;
17169;SDS011;8700;48.222;16.342;2023-05-16T16:26:31;22.52;;;20.58;;
17169;SDS011;8700;48.222;16.342;2023-05-16T16:29:52;21.55;;;19.95;;
17169;SDS011;8700;48.222;16.342;2023-05-16T16:33:18;22.70;;;21.08;;
17169;SDS011;8700;48.222;16.342;2023-05-16T16:36:40;22.30;;;20.38;;
17169;SDS011;8700;48.222;16.342;2023-05-16T16:40:02;20.50;;;18.90;;
17169;SDS011;8700;48.222;16.342;2023-05-16T16:43:24;21.77;;;19.92;;
17169;SDS011;8700;48.222;16.342;2023-05-16T16:46:45;24.20;;;22.33;;
17169;SDS011;8700;48.222;16.342;2023-05-16T16:50:09;24.77;;;22.63;;
17169;SDS011;8700;48.222;16.342;2023-05-16T16:53:30;21.73;;;20.02;;
17169;SDS011;8700;48.222;16.342;2023-05-16T16:56:54;22.55;;;20.85;;
17169;SDS011;8700;48.222;16.342;2023-05-16T17:00:15;23.95;;;21.75;;
17169;SDS011;8700;48.222;16.342;2023-05-16T17:03:38;23.65;;;21.73;;
17169;SDS011;8700;48.222;16.342;2023-05-16T17:07:00;21.17;;;19.48;;
17169;SDS011;8700;48.222;16.342;2023-05-16T17:10:22;23.25;;;21.00;;
17169;SDS011;8700;48.222;16.342;2023-05-16T17:13:43;23.58;;;21.63;;
17169;SDS011;8700;48.222;16.342;2023-05-16T17:17:05;21.00;;;19.20;;
17169;SDS011;8700;48.222;16.342;2023-05-16T17:20:26;23.35;;;21.55;;
17169;SDS011;8700;48.222;16.342;2023-05-16T17:23:51;21.15;;;19.45;;
17169;SDS011;8700;48.222;16.342;2023-05-16T17:27:12;22.67;;;20.88;;
17169;SDS011;8700;48.222;16.342;2023-05-16T17:30:34;21.92;;;19.90;;
17169;SDS011;8700;48.222;16.342;2023-05-16T17:33:56;21.80;;;20.05;;
17169;SDS011;8700;48.222;16.342;2023-05-16T17:37:17;23.05;;;21.23;;
17169;SDS011;8700;48.222;16.342;2023-05-16T17:40:40;23.25;;;21.25;;
17169;SDS011;8700;48.222;16.342;2023-05-16T17:44:03;22.23;;;20.02;;
17169;SDS011;8700;48.222;16.342;2023-05-16T17:47:25;21.08;;;19.38;;
17169;SDS011;8700;48.222;16.342;2023-05-16T17:50:47;22.48;;;20.60;;
17169;SDS011;8700;48.222;16.342;2023-05-16T17:54:10;23.90;;;21.70;;
17169;SDS011;8700;48.222;16.342;2023-05-16T17:57:33;23.38;;;21.35;;
17169;SDS011;8700;48.222;16.342;2023-05-16T18:00:55;24.45;;;22.50;;
17169;SDS011;8700;48.222;16.342;2023-05-16T18:04:16;22.92;;;21.13;;
17169;SDS011;8700;48.222;16.342;2023-05-16T18:07:39;22.67;;;20.73;;
17169;SDS011;8700;48.222;16.342;2023-05-16T18:11:01;24.02;;;21.85;;
17169;SDS011;8700;48.222;16.342;2023-05-16T18:14:23;22.65;;;20.73;;
17169;SDS011;8700;48.222;16.342;2023-05-16T18:17:45;24.85;;;22.73;;
17169;SDS011;8700;48.222;16.342;2023-05-16T18:22:12;22.75;;;20.85;;
17169;SDS011;8700;48.222;16.342;2023-05-16T18:25:33;21.73;;;20.02;;
17169;SDS011;8700;48.222;16.342;2023-05-16T18:28:55;21.77;;;19.98;;
17169;SDS011;8700;48.222;16.342;2023-05-16T18:32:17;18.60;;;17.15;;
17169;SDS011;8700;48.222;16.342;2023-05-16T18:35:40;21.20;;;19.38;;
17169;SDS011;8700;48.222;16.342;2023-05-16T18:39:03;20.30;;;18.67;;
17169;SDS011;8700;48.222;16.342;2023-05-16T18:42:25;19.65;;;17.88;;
17169;SDS011;8700;48.222;16.342;2023-05-16T18:45:47;19.13;;;17.52;;
17169;SDS011;8700;48.222;16.342;2023-05-16T18:49:08;22.48;;;20.67;;
